IGO1151 VIDP-VNKT
Flight info
| Callsign | IGO1151 |
|---|---|
| Flight time | 1h 13m |
| Altitude | 35000 |
| Route | LKN7E LKN G598 SMR DCT RATAN |
| Aircraft | A21N/M-SDE2E3FGHIRWXY/LB1 |
Departure
| Time | 2026-05-04 05:23 |
|---|---|
| Airport | Indira Gandhi International Airport (VIDP) |
Arrival
| Time | 2026-05-04 06:36 |
|---|---|
| Airport | Tribhuvan International Airport (VNKT) |
| Time | Latitude | Longitude | Altitude | Speed | Heading |
|---|---|---|---|---|---|
| 2026-05-04 05:06 | 28.55233 | 77.08162 | 780 ft | 0 kts | 149° |
| 2026-05-04 05:14 | 28.55234 | 77.08160 | 781 ft | 1 kts | 149° |
| 2026-05-04 05:14 | 28.55247 | 77.08152 | 781 ft | 2 kts | 149° |
| 2026-05-04 05:15 | 28.55260 | 77.08144 | 781 ft | 2 kts | 149° |
| 2026-05-04 05:15 | 28.55273 | 77.08134 | 781 ft | 2 kts | 161° |
| 2026-05-04 05:15 | 28.55288 | 77.08134 | 781 ft | 2 kts | 198° |
| 2026-05-04 05:15 | 28.55301 | 77.08143 | 781 ft | 1 kts | 231° |
| 2026-05-04 05:16 | 28.55304 | 77.08149 | 781 ft | 1 kts | 243° |
| 2026-05-04 05:16 | 28.55306 | 77.08153 | 781 ft | 0 kts | 239° |
| 2026-05-04 05:19 | 28.55304 | 77.08148 | 781 ft | 1 kts | 239° |
| 2026-05-04 05:19 | 28.55297 | 77.08135 | 781 ft | 2 kts | 239° |
| 2026-05-04 05:19 | 28.55287 | 77.08115 | 781 ft | 3 kts | 239° |
| 2026-05-04 05:19 | 28.55272 | 77.08088 | 781 ft | 4 kts | 239° |
| 2026-05-04 05:20 | 28.55253 | 77.08051 | 781 ft | 6 kts | 239° |
| 2026-05-04 05:20 | 28.55228 | 77.08003 | 781 ft | 8 kts | 239° |
| 2026-05-04 05:20 | 28.55196 | 77.07943 | 781 ft | 9 kts | 237° |
| 2026-05-04 05:20 | 28.55136 | 77.07900 | 781 ft | 11 kts | 201° |
| 2026-05-04 05:21 | 28.55116 | 77.07822 | 780 ft | 12 kts | 287° |
| 2026-05-04 05:21 | 28.55139 | 77.07724 | 780 ft | 13 kts | 284° |
| 2026-05-04 05:21 | 28.55129 | 77.07629 | 780 ft | 13 kts | 213° |
| 2026-05-04 05:21 | 28.55039 | 77.07595 | 780 ft | 13 kts | 194° |
| 2026-05-04 05:22 | 28.54946 | 77.07568 | 780 ft | 13 kts | 194° |
| 2026-05-04 05:22 | 28.54858 | 77.07573 | 781 ft | 13 kts | 128° |
| 2026-05-04 05:22 | 28.54845 | 77.07614 | 780 ft | 0 kts | 103° |
| 2026-05-04 05:22 | 28.54816 | 77.07751 | 781 ft | 51 kts | 103° |
| 2026-05-04 05:23 | 28.54672 | 77.08422 | 781 ft | 119 kts | 104° |
| 2026-05-04 05:23 | 28.54425 | 77.09553 | 806 ft | 170 kts | 102° |
| 2026-05-04 05:23 | 28.54134 | 77.10874 | 1367 ft | 174 kts | 104° |
| 2026-05-04 05:23 | 28.53805 | 77.12234 | 1877 ft | 188 kts | 109° |
| 2026-05-04 05:24 | 28.52979 | 77.13456 | 2327 ft | 208 kts | 142° |
| 2026-05-04 05:24 | 28.51691 | 77.14378 | 2747 ft | 230 kts | 142° |
| 2026-05-04 05:24 | 28.50351 | 77.15509 | 3269 ft | 248 kts | 141° |
| 2026-05-04 05:24 | 28.48976 | 77.16704 | 4021 ft | 256 kts | 141° |
| 2026-05-04 05:25 | 28.47528 | 77.17946 | 4865 ft | 261 kts | 142° |
| 2026-05-04 05:25 | 28.46071 | 77.19184 | 5629 ft | 266 kts | 143° |
| 2026-05-04 05:25 | 28.44586 | 77.20433 | 6362 ft | 271 kts | 144° |
| 2026-05-04 05:25 | 28.43055 | 77.21716 | 7073 ft | 277 kts | 144° |
| 2026-05-04 05:26 | 28.41478 | 77.23030 | 7758 ft | 283 kts | 145° |
| 2026-05-04 05:26 | 28.39870 | 77.24366 | 8396 ft | 290 kts | 146° |
| 2026-05-04 05:26 | 28.38234 | 77.25720 | 9055 ft | 296 kts | 146° |
| 2026-05-04 05:26 | 28.36541 | 77.27123 | 9716 ft | 302 kts | 146° |
| 2026-05-04 05:27 | 28.34845 | 77.28529 | 10310 ft | 309 kts | 146° |
| 2026-05-04 05:28 | 28.21164 | 77.39839 | 14431 ft | 364 kts | 147° |
| 2026-05-04 05:29 | 28.19105 | 77.41542 | 15142 ft | 367 kts | 147° |
| 2026-05-04 05:29 | 28.17043 | 77.43244 | 15845 ft | 369 kts | 148° |
| 2026-05-04 05:29 | 28.14963 | 77.44960 | 16537 ft | 372 kts | 148° |
| 2026-05-04 05:29 | 28.12869 | 77.46686 | 17190 ft | 375 kts | 148° |
| 2026-05-04 05:31 | 27.97747 | 77.59121 | 21497 ft | 394 kts | 148° |
| 2026-05-04 05:31 | 27.95513 | 77.60954 | 22046 ft | 397 kts | 147° |
| 2026-05-04 05:32 | 27.93272 | 77.62794 | 22586 ft | 400 kts | 147° |
| 2026-05-04 05:32 | 27.91013 | 77.64651 | 23129 ft | 403 kts | 147° |
| 2026-05-04 05:32 | 27.88714 | 77.66537 | 23618 ft | 406 kts | 148° |
| 2026-05-04 05:33 | 27.84228 | 77.70567 | 24429 ft | 421 kts | 136° |
| 2026-05-04 05:33 | 27.82543 | 77.73301 | 24811 ft | 431 kts | 121° |
| 2026-05-04 05:33 | 27.81462 | 77.76487 | 25230 ft | 438 kts | 110° |
| 2026-05-04 05:33 | 27.80629 | 77.79806 | 25628 ft | 441 kts | 108° |
| 2026-05-04 05:34 | 27.79822 | 77.83160 | 25976 ft | 445 kts | 108° |
| 2026-05-04 05:34 | 27.79002 | 77.86543 | 26321 ft | 449 kts | 108° |
| 2026-05-04 05:34 | 27.78165 | 77.89940 | 26670 ft | 452 kts | 108° |
| 2026-05-04 05:34 | 27.77315 | 77.93350 | 27033 ft | 454 kts | 109° |
| 2026-05-04 05:35 | 27.76451 | 77.96789 | 27365 ft | 457 kts | 109° |
| 2026-05-04 05:35 | 27.75590 | 78.00200 | 27680 ft | 459 kts | 109° |
| 2026-05-04 05:35 | 27.74701 | 78.03711 | 27986 ft | 463 kts | 109° |
| 2026-05-04 05:35 | 27.73817 | 78.07196 | 28277 ft | 466 kts | 108° |
| 2026-05-04 05:36 | 27.72924 | 78.10703 | 28546 ft | 468 kts | 109° |
| 2026-05-04 05:36 | 27.71906 | 78.14185 | 28829 ft | 470 kts | 113° |
| 2026-05-04 05:36 | 27.70726 | 78.17621 | 29108 ft | 471 kts | 115° |
| 2026-05-04 05:36 | 27.69503 | 78.21046 | 29375 ft | 474 kts | 115° |
| 2026-05-04 05:37 | 27.68268 | 78.24484 | 29688 ft | 475 kts | 115° |
| 2026-05-04 05:37 | 27.67027 | 78.27947 | 29941 ft | 478 kts | 115° |
| 2026-05-04 05:37 | 27.65775 | 78.31438 | 30190 ft | 481 kts | 115° |
| 2026-05-04 05:38 | 27.63276 | 78.38412 | 30919 ft | 479 kts | 115° |
| 2026-05-04 05:38 | 27.62031 | 78.41891 | 31240 ft | 479 kts | 115° |
| 2026-05-04 05:38 | 27.60783 | 78.45369 | 31521 ft | 480 kts | 115° |
| 2026-05-04 05:38 | 27.59535 | 78.48841 | 31825 ft | 480 kts | 115° |
| 2026-05-04 05:39 | 27.58275 | 78.52353 | 32163 ft | 479 kts | 115° |
| 2026-05-04 05:39 | 27.55796 | 78.59243 | 32799 ft | 477 kts | 115° |
| 2026-05-04 05:39 | 27.54548 | 78.62708 | 33050 ft | 478 kts | 116° |
| 2026-05-04 05:40 | 27.52023 | 78.69704 | 33480 ft | 481 kts | 116° |
| 2026-05-04 05:40 | 27.50767 | 78.73174 | 33697 ft | 481 kts | 116° |
| 2026-05-04 05:40 | 27.49507 | 78.76660 | 33891 ft | 482 kts | 116° |
| 2026-05-04 05:41 | 27.48242 | 78.80156 | 34092 ft | 483 kts | 116° |
| 2026-05-04 05:41 | 27.46977 | 78.83650 | 34273 ft | 484 kts | 117° |
| 2026-05-04 05:41 | 27.45711 | 78.87142 | 34447 ft | 485 kts | 117° |
| 2026-05-04 05:41 | 27.44440 | 78.90641 | 34643 ft | 486 kts | 117° |
| 2026-05-04 05:42 | 27.43164 | 78.94154 | 34794 ft | 487 kts | 117° |
| 2026-05-04 05:42 | 27.41882 | 78.97679 | 34812 ft | 489 kts | 117° |
| 2026-05-04 05:42 | 27.39308 | 79.04748 | 34808 ft | 489 kts | 117° |
| 2026-05-04 05:43 | 27.36733 | 79.11807 | 34814 ft | 489 kts | 117° |
| 2026-05-04 05:45 | 27.26376 | 79.40080 | 34808 ft | 491 kts | 117° |
| 2026-05-04 05:47 | 27.16781 | 79.68833 | 34776 ft | 492 kts | 116° |
| 2026-05-04 05:47 | 27.14380 | 79.76016 | 34791 ft | 494 kts | 116° |
| 2026-05-04 05:48 | 27.11970 | 79.83217 | 34797 ft | 494 kts | 116° |
| 2026-05-04 05:48 | 27.09547 | 79.90440 | 34788 ft | 495 kts | 117° |
| 2026-05-04 05:49 | 27.07116 | 79.97669 | 34795 ft | 494 kts | 117° |
| 2026-05-04 05:49 | 27.04694 | 80.04858 | 34776 ft | 496 kts | 116° |
| 2026-05-04 05:51 | 26.94883 | 80.33840 | 34792 ft | 499 kts | 116° |
| 2026-05-04 05:52 | 26.92418 | 80.41088 | 34793 ft | 499 kts | 116° |
| 2026-05-04 05:52 | 26.89957 | 80.48319 | 34792 ft | 499 kts | 116° |
| 2026-05-04 05:54 | 26.80027 | 80.77322 | 34812 ft | 499 kts | 117° |
| 2026-05-04 05:55 | 26.77863 | 80.84720 | 34815 ft | 506 kts | 109° |
| 2026-05-04 05:55 | 26.76802 | 80.92534 | 34817 ft | 513 kts | 97° |
| 2026-05-04 05:56 | 26.76982 | 81.00537 | 34803 ft | 519 kts | 86° |
| 2026-05-04 05:56 | 26.77887 | 81.08542 | 34813 ft | 520 kts | 85° |
| 2026-05-04 05:57 | 26.78825 | 81.16535 | 34795 ft | 520 kts | 85° |
| 2026-05-04 05:57 | 26.79727 | 81.24571 | 34791 ft | 521 kts | 85° |
| 2026-05-04 05:58 | 26.80608 | 81.32587 | 34790 ft | 520 kts | 86° |
| 2026-05-04 05:58 | 26.81479 | 81.40629 | 34783 ft | 520 kts | 85° |
| 2026-05-04 05:59 | 26.82341 | 81.48640 | 34768 ft | 520 kts | 85° |
| 2026-05-04 05:59 | 26.83197 | 81.56654 | 34782 ft | 521 kts | 86° |
| 2026-05-04 06:00 | 26.84051 | 81.64654 | 34782 ft | 521 kts | 85° |
| 2026-05-04 06:00 | 26.84912 | 81.72754 | 34786 ft | 520 kts | 86° |
| 2026-05-04 06:01 | 26.85754 | 81.80776 | 34787 ft | 521 kts | 86° |
| 2026-05-04 06:03 | 26.89106 | 82.13020 | 34810 ft | 523 kts | 86° |
| 2026-05-04 06:05 | 26.92793 | 82.49357 | 34796 ft | 524 kts | 86° |
| 2026-05-04 06:06 | 26.93609 | 82.57532 | 34809 ft | 525 kts | 86° |
| 2026-05-04 06:06 | 26.94414 | 82.65618 | 34799 ft | 525 kts | 87° |
| 2026-05-04 06:07 | 26.95221 | 82.73776 | 34808 ft | 524 kts | 87° |
| 2026-05-04 06:07 | 26.96014 | 82.81885 | 34814 ft | 524 kts | 87° |
| 2026-05-04 06:08 | 26.96801 | 82.89979 | 34806 ft | 525 kts | 87° |
| 2026-05-04 06:08 | 26.97592 | 82.98132 | 34804 ft | 525 kts | 87° |
| 2026-05-04 06:09 | 26.98402 | 83.06214 | 34822 ft | 525 kts | 86° |
| 2026-05-04 06:11 | 27.01715 | 83.38708 | 34840 ft | 526 kts | 86° |
| 2026-05-04 06:13 | 27.04950 | 83.71298 | 34846 ft | 525 kts | 86° |
| 2026-05-04 06:14 | 27.07301 | 83.95496 | 33008 ft | 516 kts | 87° |
| 2026-05-04 06:14 | 27.07686 | 83.99488 | 32349 ft | 517 kts | 87° |
| 2026-05-04 06:15 | 27.08066 | 84.03495 | 31752 ft | 517 kts | 87° |
| 2026-05-04 06:15 | 27.08442 | 84.07478 | 31204 ft | 516 kts | 86° |
| 2026-05-04 06:15 | 27.08819 | 84.11454 | 30666 ft | 513 kts | 86° |
| 2026-05-04 06:15 | 27.09194 | 84.15411 | 30112 ft | 512 kts | 86° |
| 2026-05-04 06:16 | 27.09569 | 84.19365 | 29625 ft | 508 kts | 86° |
| 2026-05-04 06:16 | 27.09941 | 84.23298 | 28950 ft | 509 kts | 85° |
| 2026-05-04 06:16 | 27.10317 | 84.27294 | 28186 ft | 509 kts | 85° |
| 2026-05-04 06:16 | 27.10685 | 84.31222 | 27639 ft | 504 kts | 85° |
| 2026-05-04 06:17 | 27.11049 | 84.35111 | 27129 ft | 498 kts | 85° |
| 2026-05-04 06:17 | 27.11409 | 84.38954 | 26615 ft | 493 kts | 84° |
| 2026-05-04 06:17 | 27.11762 | 84.42749 | 26102 ft | 488 kts | 84° |
| 2026-05-04 06:17 | 27.12112 | 84.46510 | 25595 ft | 482 kts | 84° |
| 2026-05-04 06:18 | 27.12455 | 84.50232 | 25108 ft | 477 kts | 84° |
| 2026-05-04 06:18 | 27.12796 | 84.53934 | 24614 ft | 472 kts | 84° |
| 2026-05-04 06:18 | 27.13129 | 84.57567 | 24115 ft | 467 kts | 84° |
| 2026-05-04 06:20 | 27.15189 | 84.82288 | 19636 ft | 458 kts | 84° |
| 2026-05-04 06:20 | 27.15465 | 84.85870 | 18952 ft | 456 kts | 84° |
| 2026-05-04 06:21 | 27.16532 | 84.99731 | 16718 ft | 438 kts | 83° |
| 2026-05-04 06:21 | 27.16796 | 85.03117 | 16187 ft | 433 kts | 83° |
| 2026-05-04 06:22 | 27.17181 | 85.06474 | 15586 ft | 428 kts | 75° |
| 2026-05-04 06:22 | 27.18230 | 85.09541 | 15040 ft | 418 kts | 58° |
| 2026-05-04 06:25 | 27.23729 | 85.26810 | 10329 ft | 266 kts | 219° |
| 2026-05-04 06:25 | 27.22459 | 85.25368 | 10344 ft | 261 kts | 239° |
| 2026-05-04 06:26 | 27.21741 | 85.23506 | 10334 ft | 258 kts | 260° |
| 2026-05-04 06:26 | 27.21669 | 85.21535 | 10322 ft | 255 kts | 280° |
| 2026-05-04 06:26 | 27.22272 | 85.19664 | 10318 ft | 255 kts | 304° |
| 2026-05-04 06:26 | 27.23562 | 85.18323 | 10326 ft | 256 kts | 330° |
| 2026-05-04 06:27 | 27.30748 | 85.18391 | 10345 ft | 263 kts | 12° |
| 2026-05-04 06:28 | 27.32504 | 85.19059 | 10347 ft | 265 kts | 18° |
| 2026-05-04 06:28 | 27.34218 | 85.19828 | 10356 ft | 265 kts | 20° |
| 2026-05-04 06:28 | 27.35946 | 85.20623 | 10317 ft | 262 kts | 20° |
| 2026-05-04 06:28 | 27.37624 | 85.21394 | 9903 ft | 260 kts | 20° |
| 2026-05-04 06:29 | 27.39322 | 85.22168 | 9288 ft | 263 kts | 20° |
| 2026-05-04 06:29 | 27.41000 | 85.22932 | 8819 ft | 258 kts | 21° |
| 2026-05-04 06:29 | 27.42622 | 85.23672 | 8617 ft | 242 kts | 21° |
| 2026-05-04 06:29 | 27.44110 | 85.24353 | 8628 ft | 216 kts | 20° |
| 2026-05-04 06:30 | 27.45482 | 85.24811 | 8654 ft | 191 kts | 7° |
| 2026-05-04 06:30 | 27.46783 | 85.24869 | 8596 ft | 184 kts | 353° |
| 2026-05-04 06:30 | 27.48039 | 85.24609 | 8523 ft | 183 kts | 344° |
| 2026-05-04 06:30 | 27.49276 | 85.24232 | 8381 ft | 181 kts | 342° |
| 2026-05-04 06:31 | 27.50489 | 85.23853 | 8246 ft | 180 kts | 346° |
| 2026-05-04 06:31 | 27.51743 | 85.23644 | 8024 ft | 180 kts | 357° |
| 2026-05-04 06:31 | 27.52992 | 85.23711 | 7794 ft | 176 kts | 7° |
| 2026-05-04 06:31 | 27.54150 | 85.24019 | 7541 ft | 164 kts | 18° |
| 2026-05-04 06:32 | 27.55179 | 85.24509 | 7328 ft | 160 kts | 30° |
| 2026-05-04 06:33 | 27.60576 | 85.30721 | 6009 ft | 159 kts | 49° |
| 2026-05-04 06:34 | 27.61360 | 85.31606 | 5814 ft | 159 kts | 43° |
| 2026-05-04 06:34 | 27.62244 | 85.32363 | 5623 ft | 158 kts | 34° |
| 2026-05-04 06:34 | 27.63197 | 85.32974 | 5434 ft | 157 kts | 27° |
| 2026-05-04 06:34 | 27.64212 | 85.33478 | 5245 ft | 157 kts | 22° |
| 2026-05-04 06:35 | 27.65229 | 85.33916 | 5062 ft | 156 kts | 21° |
| 2026-05-04 06:36 | 27.70120 | 85.36124 | 4464 ft | 8 kts | 8° |
| 2026-05-04 06:37 | 27.70171 | 85.36114 | 4466 ft | 6 kts | 336° |
| 2026-05-04 06:37 | 27.70197 | 85.36088 | 4468 ft | 3 kts | 298° |
| 2026-05-04 06:37 | 27.70200 | 85.36073 | 4469 ft | 1 kts | 274° |
| 2026-05-04 06:37 | 27.70199 | 85.36061 | 4469 ft | 2 kts | 259° |
| 2026-05-04 06:38 | 27.70172 | 85.36032 | 4470 ft | 9 kts | 193° |
| 2026-05-04 06:38 | 27.70111 | 85.36002 | 4470 ft | 9 kts | 202° |